Time;durP1;ratioP1;P1;durP2;ratioP2;P2;SDS_P1;SDS_P2;PMS_P1;PMS_P2;Temp;Humidity;BMP_temperature;BMP_pressure;BME280_temperature;BME280_humidity;BME280_pressure;Samples;Min_cycle;Max_cycle;Signal;HPM_P1;HPM_P2
2022/09/18 00:01:15;;;;;;;7.33;3.70;;;;;;;;;;4990851;28;20718;-70
2022/09/18 00:03:41;;;;;;;4.23;3.20;;;;;;;;;;4991763;28;20223;-71
2022/09/18 00:06:09;;;;;;;7.47;4.30;;;;;;;;;;4990833;28;20188;-68
2022/09/18 00:08:37;;;;;;;7.27;3.93;;;;;;;;;;4975206;28;20197;-68
2022/09/18 00:11:07;;;;;;;5.67;3.40;;;;;;;;;;4992073;28;20211;-69
2022/09/18 00:13:34;;;;;;;5.43;3.50;;;;;;;;;;4992155;28;20263;-70
2022/09/18 00:16:18;;;;;;;5.70;3.83;;;;;;;;;;4992073;28;20235;-68
2022/09/18 00:18:46;;;;;;;6.30;3.73;;;;;;;;;;4991440;28;20758;-69
2022/09/18 00:21:31;;;;;;;5.07;3.43;;;;;;;;;;4990983;28;20177;-69
2022/09/18 00:23:58;;;;;;;7.53;3.50;;;;;;;;;;4991694;28;20264;-69
2022/09/18 00:26:25;;;;;;;6.40;3.07;;;;;;;;;;4991995;28;20196;-69
2022/09/18 00:28:55;;;;;;;5.67;3.20;;;;;;;;;;4971343;28;20248;-69
2022/09/18 00:31:28;;;;;;;5.17;3.10;;;;;;;;;;4972657;28;20232;-69
2022/09/18 00:33:56;;;;;;;5.40;3.00;;;;;;;;;;4989576;28;20212;-69
2022/09/18 00:36:23;;;;;;;6.70;2.93;;;;;;;;;;4973936;28;20196;-69
2022/09/18 00:38:50;;;;;;;4.00;2.50;;;;;;;;;;4983276;28;20200;-69
2022/09/18 00:41:23;;;;;;;7.93;2.60;;;;;;;;;;4978253;28;20228;-69
2022/09/18 00:43:50;;;;;;;4.97;2.30;;;;;;;;;;4971323;28;20790;-69
2022/09/18 00:46:24;;;;;;;5.27;2.90;;;;;;;;;;4988943;28;20548;-69
2022/09/18 00:48:56;;;;;;;5.17;2.70;;;;;;;;;;4967406;28;20200;-68
2022/09/18 00:51:23;;;;;;;4.23;2.70;;;;;;;;;;4970749;28;20289;-68
2022/09/18 00:53:54;;;;;;;5.03;2.90;;;;;;;;;;4989965;28;20211;-69
2022/09/18 00:56:21;;;;;;;5.40;3.10;;;;;;;;;;4985856;28;20287;-69
2022/09/18 00:58:48;;;;;;;3.93;2.57;;;;;;;;;;4973730;28;20527;-69
2022/09/18 01:01:14;;;;;;;4.43;2.53;;;;;;;;;;4957757;28;20244;-69
2022/09/18 01:03:41;;;;;;;6.50;2.80;;;;;;;;;;4973470;28;20700;-68
2022/09/18 01:06:10;;;;;;;6.03;3.20;;;;;;;;;;4973955;28;20201;-69
2022/09/18 01:08:41;;;;;;;5.23;3.17;;;;;;;;;;4991335;28;20196;-69
2022/09/18 01:11:17;;;;;;;7.23;3.07;;;;;;;;;;4974612;28;20200;-68
2022/09/18 01:14:03;;;;;;;5.80;3.20;;;;;;;;;;4977798;28;20205;-69
2022/09/18 01:16:36;;;;;;;5.50;3.20;;;;;;;;;;4989416;28;20202;-70
2022/09/18 01:19:09;;;;;;;6.07;3.83;;;;;;;;;;4973295;28;20220;-70
2022/09/18 01:21:41;;;;;;;4.93;3.80;;;;;;;;;;4973578;28;20223;-70
2022/09/18 01:24:17;;;;;;;5.20;3.90;;;;;;;;;;4973619;28;20263;-70
2022/09/18 01:26:44;;;;;;;6.67;3.87;;;;;;;;;;4989209;28;20201;-70
2022/09/18 01:29:14;;;;;;;7.13;4.17;;;;;;;;;;4990294;28;20197;-70
2022/09/18 01:32:04;;;;;;;6.00;4.20;;;;;;;;;;4988516;28;20209;-70
2022/09/18 01:34:34;;;;;;;6.77;4.17;;;;;;;;;;4971514;28;20280;-70
2022/09/18 01:37:05;;;;;;;6.53;3.90;;;;;;;;;;4969924;28;20235;-70
2022/09/18 01:39:46;;;;;;;6.83;4.07;;;;;;;;;;4967842;28;20740;-72
2022/09/18 01:42:12;;;;;;;9.30;4.33;;;;;;;;;;4970263;28;20239;-70
2022/09/18 01:44:40;;;;;;;6.27;4.07;;;;;;;;;;4984995;28;20234;-71
2022/09/18 01:47:08;;;;;;;7.73;4.20;;;;;;;;;;4969273;28;20193;-70
2022/09/18 01:49:41;;;;;;;5.30;3.80;;;;;;;;;;4949310;28;20266;-70
2022/09/18 01:52:14;;;;;;;6.87;4.10;;;;;;;;;;4969590;28;20193;-70
2022/09/18 01:54:42;;;;;;;5.47;3.60;;;;;;;;;;4966615;28;20229;-70
2022/09/18 01:57:22;;;;;;;6.70;4.40;;;;;;;;;;4969608;28;20203;-68
2022/09/18 01:59:56;;;;;;;5.60;3.90;;;;;;;;;;4957125;28;20555;-69
2022/09/18 02:02:26;;;;;;;5.27;3.50;;;;;;;;;;4970909;28;20207;-71
2022/09/18 02:04:55;;;;;;;6.07;4.40;;;;;;;;;;4988808;28;20268;-70
2022/09/18 02:07:40;;;;;;;6.30;4.40;;;;;;;;;;4970074;28;20204;-70
2022/09/18 02:10:08;;;;;;;5.20;4.40;;;;;;;;;;4980296;28;20682;-67
2022/09/18 02:12:36;;;;;;;6.10;4.37;;;;;;;;;;4969677;28;20209;-70
2022/09/18 02:15:04;;;;;;;7.50;4.67;;;;;;;;;;4967846;28;20204;-70
2022/09/18 02:18:11;;;;;;;8.03;4.60;;;;;;;;;;4982795;28;20204;-70
2022/09/18 02:20:40;;;;;;;6.20;3.73;;;;;;;;;;4988347;28;20714;-69
2022/09/18 02:23:07;;;;;;;7.33;4.40;;;;;;;;;;4970090;28;20184;-70
2022/09/18 02:25:39;;;;;;;5.73;4.10;;;;;;;;;;4987736;28;20224;-70
2022/09/18 02:28:07;;;;;;;7.10;4.50;;;;;;;;;;4976581;28;20653;-70
2022/09/18 02:30:36;;;;;;;6.47;4.03;;;;;;;;;;4971327;28;20309;-70
2022/09/18 02:33:02;;;;;;;7.43;4.70;;;;;;;;;;4984426;28;20196;-69
2022/09/18 02:35:44;;;;;;;7.70;4.20;;;;;;;;;;4987876;28;20212;-70
2022/09/18 02:38:23;;;;;;;6.17;4.50;;;;;;;;;;4970964;28;20219;-70
2022/09/18 02:41:01;;;;;;;6.87;4.33;;;;;;;;;;4971772;28;20249;-69
2022/09/18 02:43:34;;;;;;;7.27;4.20;;;;;;;;;;4988280;28;20188;-69
2022/09/18 02:46:14;;;;;;;5.30;3.97;;;;;;;;;;4968399;28;20208;-70
2022/09/18 02:49:00;;;;;;;7.57;4.50;;;;;;;;;;4970934;28;20697;-69
2022/09/18 02:51:43;;;;;;;6.43;4.03;;;;;;;;;;4986189;28;20201;-69
2022/09/18 02:54:29;;;;;;;4.73;3.70;;;;;;;;;;4956991;28;20201;-70
2022/09/18 02:56:59;;;;;;;6.13;3.90;;;;;;;;;;4979197;28;20728;-70
2022/09/18 02:59:30;;;;;;;5.63;3.73;;;;;;;;;;4969633;28;20201;-70
2022/09/18 03:01:57;;;;;;;5.00;4.20;;;;;;;;;;4973646;28;20203;-70
2022/09/18 03:04:26;;;;;;;5.77;4.30;;;;;;;;;;4973773;28;20216;-70
2022/09/18 03:06:59;;;;;;;5.17;3.77;;;;;;;;;;4975759;28;20286;-69
2022/09/18 03:09:28;;;;;;;6.20;3.60;;;;;;;;;;4975598;28;20196;-70
2022/09/18 03:11:55;;;;;;;5.87;3.67;;;;;;;;;;4974393;28;20202;-70
2022/09/18 03:14:24;;;;;;;4.93;3.63;;;;;;;;;;4972392;28;20286;-68
2022/09/18 03:16:50;;;;;;;4.90;3.53;;;;;;;;;;4988431;28;20576;-69
2022/09/18 03:19:18;;;;;;;5.53;3.90;;;;;;;;;;4988142;28;20229;-68
2022/09/18 03:21:45;;;;;;;6.77;3.90;;;;;;;;;;4972188;28;20198;-68
2022/09/18 03:24:11;;;;;;;5.33;3.70;;;;;;;;;;4969364;28;20225;-68
2022/09/18 03:26:42;;;;;;;7.00;3.57;;;;;;;;;;4974526;28;20212;-69
2022/09/18 03:29:09;;;;;;;4.80;3.80;;;;;;;;;;4984321;28;20239;-70
2022/09/18 03:31:38;;;;;;;5.63;4.00;;;;;;;;;;4979153;28;20192;-70
2022/09/18 03:34:05;;;;;;;6.70;4.10;;;;;;;;;;4971311;28;20208;-70
2022/09/18 03:36:32;;;;;;;4.90;3.53;;;;;;;;;;4989931;28;20199;-70
2022/09/18 03:38:59;;;;;;;6.13;3.47;;;;;;;;;;4988755;28;20204;-70
2022/09/18 03:41:27;;;;;;;4.10;3.30;;;;;;;;;;4987554;28;20195;-70
2022/09/18 03:43:55;;;;;;;5.07;3.47;;;;;;;;;;4970902;28;20280;-70
2022/09/18 03:46:22;;;;;;;4.23;3.40;;;;;;;;;;4985821;28;20201;-71
2022/09/18 03:48:53;;;;;;;7.43;3.00;;;;;;;;;;4985114;28;20228;-68
2022/09/18 03:51:21;;;;;;;5.53;3.70;;;;;;;;;;4968361;28;20204;-71
2022/09/18 03:53:50;;;;;;;4.10;3.63;;;;;;;;;;4990240;28;20235;-69
2022/09/18 03:56:40;;;;;;;4.60;4.10;;;;;;;;;;4969578;28;20193;-68
2022/09/18 03:59:18;;;;;;;5.20;3.93;;;;;;;;;;4990743;28;20268;-70
2022/09/18 04:01:57;;;;;;;5.97;3.57;;;;;;;;;;4989871;28;20659;-70
2022/09/18 04:04:24;;;;;;;5.93;3.90;;;;;;;;;;4987378;28;20249;-69
2022/09/18 04:07:09;;;;;;;8.93;4.47;;;;;;;;;;4976084;28;20219;-70
2022/09/18 04:09:39;;;;;;;6.80;4.33;;;;;;;;;;4984680;28;20229;-70
2022/09/18 04:12:06;;;;;;;5.87;4.37;;;;;;;;;;4985786;28;20215;-69
2022/09/18 04:14:33;;;;;;;6.87;4.40;;;;;;;;;;4971518;28;20182;-70
2022/09/18 04:17:00;;;;;;;5.80;4.20;;;;;;;;;;4973754;28;20358;-68
2022/09/18 04:19:28;;;;;;;6.60;5.03;;;;;;;;;;4990742;28;20691;-68
2022/09/18 04:21:57;;;;;;;7.53;5.07;;;;;;;;;;4971143;28;20564;-68
2022/09/18 04:24:23;;;;;;;8.00;5.27;;;;;;;;;;4970503;28;20710;-69
2022/09/18 04:26:50;;;;;;;6.70;4.97;;;;;;;;;;4992142;28;20184;-68
2022/09/18 04:29:20;;;;;;;7.07;5.27;;;;;;;;;;4979867;28;20199;-69
2022/09/18 04:31:48;;;;;;;7.80;5.53;;;;;;;;;;4973758;28;20255;-68
2022/09/18 04:34:18;;;;;;;6.90;4.93;;;;;;;;;;4970839;28;20220;-68
2022/09/18 04:36:46;;;;;;;7.50;4.87;;;;;;;;;;4977928;28;20610;-68
2022/09/18 04:39:13;;;;;;;8.03;5.50;;;;;;;;;;4991625;28;20185;-69
2022/09/18 04:41:40;;;;;;;7.07;5.13;;;;;;;;;;4968909;28;20284;-68
2022/09/18 04:44:07;;;;;;;5.63;4.50;;;;;;;;;;4985560;28;20198;-68
2022/09/18 04:46:34;;;;;;;6.73;4.93;;;;;;;;;;4972764;28;20200;-69
2022/09/18 04:49:01;;;;;;;7.67;5.57;;;;;;;;;;4969884;28;20242;-69
2022/09/18 04:51:28;;;;;;;6.20;4.90;;;;;;;;;;4953937;28;20205;-68
2022/09/18 04:53:55;;;;;;;7.13;5.23;;;;;;;;;;4986897;28;20190;-68
2022/09/18 04:56:22;;;;;;;6.17;4.63;;;;;;;;;;4960753;28;20258;-68
2022/09/18 04:58:51;;;;;;;6.67;4.90;;;;;;;;;;4972904;28;20196;-68
2022/09/18 05:01:18;;;;;;;7.77;5.17;;;;;;;;;;4963820;28;20207;-68
2022/09/18 05:03:45;;;;;;;8.17;5.67;;;;;;;;;;4986523;28;20314;-69
2022/09/18 05:06:25;;;;;;;8.93;5.70;;;;;;;;;;4973018;28;20192;-69
2022/09/18 05:08:52;;;;;;;9.77;5.47;;;;;;;;;;4972079;28;20652;-70
2022/09/18 05:11:21;;;;;;;7.00;5.00;;;;;;;;;;4970113;28;20653;-69
2022/09/18 05:13:48;;;;;;;9.33;5.93;;;;;;;;;;4964984;28;20193;-69
2022/09/18 05:16:15;;;;;;;7.30;5.40;;;;;;;;;;4972094;28;20715;-69
2022/09/18 05:18:52;;;;;;;7.37;5.47;;;;;;;;;;4977394;28;20236;-69
2022/09/18 05:21:19;;;;;;;7.57;5.23;;;;;;;;;;4988868;28;20312;-69
2022/09/18 05:23:49;;;;;;;7.20;5.30;;;;;;;;;;4973378;28;20201;-69
2022/09/18 05:26:19;;;;;;;10.33;5.70;;;;;;;;;;4986566;28;20707;-69
2022/09/18 05:28:49;;;;;;;8.30;5.77;;;;;;;;;;4969981;28;20280;-69
2022/09/18 05:31:17;;;;;;;8.40;5.17;;;;;;;;;;4956697;28;20197;-69
2022/09/18 05:33:45;;;;;;;8.10;5.73;;;;;;;;;;4969814;28;20200;-69
2022/09/18 05:36:12;;;;;;;7.37;5.37;;;;;;;;;;4983247;28;20260;-69
2022/09/18 05:38:39;;;;;;;7.47;5.40;;;;;;;;;;4970649;28;20637;-69
2022/09/18 05:41:07;;;;;;;7.17;5.70;;;;;;;;;;4956300;28;20207;-69
2022/09/18 05:43:34;;;;;;;7.17;5.47;;;;;;;;;;4952445;28;20219;-69
2022/09/18 05:46:05;;;;;;;8.37;5.53;;;;;;;;;;4987946;28;20233;-69
2022/09/18 05:48:43;;;;;;;6.57;5.10;;;;;;;;;;4967710;28;20197;-69
2022/09/18 05:51:10;;;;;;;7.23;5.23;;;;;;;;;;4968646;28;20586;-68
2022/09/18 05:53:37;;;;;;;6.40;4.83;;;;;;;;;;4971286;28;20209;-68
2022/09/18 05:56:16;;;;;;;7.37;4.87;;;;;;;;;;4973682;28;20203;-68
2022/09/18 05:58:44;;;;;;;6.77;5.20;;;;;;;;;;4988679;28;20236;-68
2022/09/18 06:01:13;;;;;;;5.80;4.53;;;;;;;;;;4992714;28;20220;-67
2022/09/18 06:04:02;;;;;;;6.40;4.77;;;;;;;;;;4972611;28;20223;-68
2022/09/18 06:06:55;;;;;;;5.33;4.50;;;;;;;;;;4972584;28;20172;-68
2022/09/18 06:09:23;;;;;;;8.03;4.40;;;;;;;;;;4988533;28;20212;-69
2022/09/18 06:11:50;;;;;;;6.70;4.40;;;;;;;;;;4968719;28;20217;-70
2022/09/18 06:14:17;;;;;;;7.33;4.93;;;;;;;;;;4968621;28;20205;-68
2022/09/18 06:16:45;;;;;;;4.90;4.20;;;;;;;;;;4970330;28;20193;-69
2022/09/18 06:19:13;;;;;;;6.77;4.70;;;;;;;;;;4974369;28;20644;-68
2022/09/18 06:21:42;;;;;;;6.43;4.43;;;;;;;;;;4978988;28;20200;-69
2022/09/18 06:24:13;;;;;;;9.50;5.17;;;;;;;;;;4970057;28;20220;-69
2022/09/18 06:26:53;;;;;;;5.27;4.40;;;;;;;;;;4969299;28;20572;-68
2022/09/18 06:29:21;;;;;;;6.03;4.13;;;;;;;;;;4983074;28;20192;-68
2022/09/18 06:32:11;;;;;;;6.03;4.53;;;;;;;;;;4988699;28;20608;-68
2022/09/18 06:34:38;;;;;;;7.47;4.43;;;;;;;;;;4970909;28;20208;-67
2022/09/18 06:37:11;;;;;;;4.00;3.57;;;;;;;;;;4969079;28;20653;-66
2022/09/18 06:39:40;;;;;;;5.47;4.07;;;;;;;;;;4979456;28;20221;-66
2022/09/18 06:42:12;;;;;;;4.73;3.87;;;;;;;;;;4961146;28;20196;-68
2022/09/18 06:44:57;;;;;;;4.97;3.90;;;;;;;;;;4974776;28;20228;-68
2022/09/18 06:47:26;;;;;;;5.13;3.60;;;;;;;;;;4959364;28;20197;-69
2022/09/18 06:49:54;;;;;;;6.83;3.70;;;;;;;;;;4966353;28;20288;-67
2022/09/18 06:52:21;;;;;;;4.53;3.40;;;;;;;;;;4989652;28;20192;-67
2022/09/18 06:54:48;;;;;;;5.40;3.73;;;;;;;;;;4988944;28;20629;-69
2022/09/18 06:57:28;;;;;;;5.57;3.80;;;;;;;;;;4988449;28;20193;-67
2022/09/18 06:59:55;;;;;;;5.37;3.57;;;;;;;;;;4976752;28;20260;-70
2022/09/18 07:02:23;;;;;;;5.90;3.50;;;;;;;;;;4967987;28;20201;-68
2022/09/18 07:05:01;;;;;;;4.40;3.13;;;;;;;;;;4974470;28;20315;-68
2022/09/18 07:07:28;;;;;;;5.10;3.40;;;;;;;;;;4968913;28;20201;-68
2022/09/18 07:09:55;;;;;;;6.97;3.17;;;;;;;;;;4980457;28;20194;-68
2022/09/18 07:12:25;;;;;;;5.40;3.40;;;;;;;;;;4985170;28;20231;-68
2022/09/18 07:14:52;;;;;;;5.30;3.10;;;;;;;;;;4968967;28;20204;-68
2022/09/18 07:17:21;;;;;;;6.40;3.40;;;;;;;;;;4966728;28;20193;-67
2022/09/18 07:19:54;;;;;;;4.07;3.23;;;;;;;;;;4961385;28;20245;-69
2022/09/18 07:22:28;;;;;;;5.50;3.10;;;;;;;;;;4984106;28;20193;-69
2022/09/18 07:24:55;;;;;;;4.63;3.20;;;;;;;;;;4968869;28;20221;-69
2022/09/18 07:27:21;;;;;;;5.33;2.90;;;;;;;;;;4982231;28;20729;-69
2022/09/18 07:29:49;;;;;;;4.47;3.10;;;;;;;;;;4967792;28;20269;-69
2022/09/18 07:32:20;;;;;;;6.13;3.23;;;;;;;;;;4963744;28;20663;-69
2022/09/18 07:34:47;;;;;;;4.37;3.00;;;;;;;;;;4968302;28;20735;-69
2022/09/18 07:37:21;;;;;;;5.03;2.83;;;;;;;;;;4958485;28;20225;-69
2022/09/18 07:40:04;;;;;;;3.10;2.67;;;;;;;;;;4989693;28;20193;-69
2022/09/18 07:43:07;;;;;;;3.60;3.07;;;;;;;;;;4966777;28;20205;-68
2022/09/18 07:45:36;;;;;;;5.13;3.03;;;;;;;;;;4978387;28;20711;-68
2022/09/18 07:48:04;;;;;;;5.50;3.37;;;;;;;;;;4978875;28;20205;-69
2022/09/18 07:50:34;;;;;;;4.07;3.40;;;;;;;;;;4961023;28;20200;-68
2022/09/18 07:53:04;;;;;;;5.30;3.20;;;;;;;;;;4972148;28;20726;-70
2022/09/18 07:55:35;;;;;;;3.77;2.77;;;;;;;;;;4974558;28;20199;-68
2022/09/18 07:58:03;;;;;;;3.10;2.80;;;;;;;;;;4975398;28;20206;-68
2022/09/18 08:01:03;;;;;;;4.70;2.70;;;;;;;;;;4975240;28;20212;-69
2022/09/18 08:03:37;;;;;;;3.80;2.50;;;;;;;;;;4972520;28;20202;-68
2022/09/18 08:06:10;;;;;;;3.70;2.50;;;;;;;;;;4981367;28;21027;-71
2022/09/18 08:08:45;;;;;;;4.03;2.30;;;;;;;;;;4979342;28;20195;-68
2022/09/18 08:11:35;;;;;;;5.70;2.40;;;;;;;;;;4996891;28;20207;-68
2022/09/18 08:14:26;;;;;;;3.50;2.40;;;;;;;;;;4990545;28;20196;-68
2022/09/18 08:17:13;;;;;;;2.80;2.03;;;;;;;;;;5001404;28;20230;-68
2022/09/18 08:19:59;;;;;;;4.53;2.37;;;;;;;;;;4997946;28;20306;-67
2022/09/18 08:22:52;;;;;;;4.03;2.03;;;;;;;;;;4996926;28;20211;-67
2022/09/18 08:25:23;;;;;;;3.27;2.20;;;;;;;;;;4988591;28;20290;-68
2022/09/18 08:27:51;;;;;;;2.10;1.90;;;;;;;;;;5004019;28;20203;-67
2022/09/18 08:30:30;;;;;;;3.30;1.97;;;;;;;;;;5003934;28;20242;-67
2022/09/18 08:33:06;;;;;;;3.20;2.10;;;;;;;;;;4984363;28;20231;-67
2022/09/18 08:35:32;;;;;;;4.27;2.07;;;;;;;;;;4983639;28;20212;-67
2022/09/18 08:38:10;;;;;;;2.73;2.07;;;;;;;;;;5004045;28;20189;-68
2022/09/18 08:40:59;;;;;;;3.40;1.80;;;;;;;;;;5000090;28;20207;-67
2022/09/18 08:43:27;;;;;;;2.50;1.67;;;;;;;;;;4991923;28;20243;-67
2022/09/18 08:45:57;;;;;;;4.20;2.13;;;;;;;;;;5000722;28;20922;-67
2022/09/18 08:48:26;;;;;;;5.07;2.10;;;;;;;;;;4984029;28;20259;-67
2022/09/18 08:51:01;;;;;;;5.43;2.07;;;;;;;;;;4987829;28;20184;-68
2022/09/18 08:53:31;;;;;;;2.23;1.50;;;;;;;;;;4992122;28;20207;-68
2022/09/18 08:56:33;;;;;;;4.83;1.70;;;;;;;;;;4938325;28;20339;-67
2022/09/18 08:59:34;;;;;;;2.70;1.40;;;;;;;;;;5004121;28;20718;-67
2022/09/18 09:02:49;;;;;;;3.90;1.60;;;;;;;;;;4993611;28;20231;-68
2022/09/18 09:05:17;;;;;;;2.97;1.70;;;;;;;;;;5006060;28;20196;-69
2022/09/18 09:07:56;;;;;;;3.40;1.70;;;;;;;;;;4975793;28;20765;-68
2022/09/18 09:10:33;;;;;;;3.40;1.87;;;;;;;;;;4997744;28;20529;-70
2022/09/18 09:13:07;;;;;;;2.47;1.70;;;;;;;;;;4999829;28;20228;-71
2022/09/18 09:15:36;;;;;;;3.97;1.60;;;;;;;;;;4986550;28;20219;-72
2022/09/18 09:18:18;;;;;;;2.20;1.40;;;;;;;;;;4987227;28;20948;-69
2022/09/18 09:20:46;;;;;;;4.57;1.37;;;;;;;;;;5008512;28;20629;-69
2022/09/18 09:23:19;;;;;;;2.83;1.73;;;;;;;;;;4986597;28;20192;-69
2022/09/18 09:26:04;;;;;;;6.27;1.53;;;;;;;;;;4989434;28;20218;-70
2022/09/18 09:28:51;;;;;;;2.73;1.40;;;;;;;;;;5001065;28;20204;-69
2022/09/18 09:31:49;;;;;;;2.87;1.40;;;;;;;;;;4993888;28;20207;-69
2022/09/18 09:34:26;;;;;;;1.83;1.20;;;;;;;;;;4971806;28;20200;-70
2022/09/18 09:36:58;;;;;;;2.30;1.30;;;;;;;;;;4992826;28;20611;-69
2022/09/18 09:39:36;;;;;;;1.40;0.97;;;;;;;;;;4974978;28;20327;-70
2022/09/18 09:42:10;;;;;;;2.00;1.23;;;;;;;;;;4989001;28;20421;-72
2022/09/18 09:44:59;;;;;;;3.80;1.40;;;;;;;;;;4979693;28;20192;-69
2022/09/18 09:47:29;;;;;;;1.73;1.27;;;;;;;;;;4982120;28;20631;-69
2022/09/18 09:50:34;;;;;;;1.53;1.20;;;;;;;;;;4986819;28;20172;-69
2022/09/18 09:53:03;;;;;;;3.70;1.07;;;;;;;;;;5000858;28;20250;-69
2022/09/18 09:55:54;;;;;;;2.43;0.90;;;;;;;;;;4996054;28;20246;-69
2022/09/18 09:58:40;;;;;;;2.03;1.17;;;;;;;;;;4952026;28;20722;-69
2022/09/18 10:01:13;;;;;;;1.83;1.13;;;;;;;;;;4978246;28;20188;-69
2022/09/18 10:03:55;;;;;;;1.97;1.00;;;;;;;;;;4973698;28;20206;-69
2022/09/18 10:06:25;;;;;;;2.07;1.10;;;;;;;;;;4973433;28;20219;-70
2022/09/18 10:09:00;;;;;;;2.90;1.20;;;;;;;;;;4981700;28;20688;-69
2022/09/18 10:11:31;;;;;;;2.03;1.20;;;;;;;;;;4966906;28;20204;-69
2022/09/18 10:14:09;;;;;;;2.60;1.50;;;;;;;;;;5000640;28;20199;-69
2022/09/18 10:16:53;;;;;;;2.53;1.33;;;;;;;;;;4988546;28;20173;-69
2022/09/18 10:19:21;;;;;;;2.50;1.20;;;;;;;;;;4986489;28;20228;-69
2022/09/18 10:22:06;;;;;;;1.37;1.00;;;;;;;;;;4999678;28;20184;-69
2022/09/18 10:24:37;;;;;;;2.17;0.90;;;;;;;;;;4992303;28;20299;-70
2022/09/18 10:27:11;;;;;;;2.10;1.20;;;;;;;;;;5001362;28;20224;-72
2022/09/18 10:29:40;;;;;;;1.77;1.07;;;;;;;;;;4969396;28;20274;-72
2022/09/18 10:32:12;;;;;;;1.40;1.03;;;;;;;;;;4968675;28;20315;-71
2022/09/18 10:34:47;;;;;;;3.03;1.70;;;;;;;;;;4970490;28;20187;-71
2022/09/18 10:37:27;;;;;;;2.27;1.33;;;;;;;;;;4984495;28;20254;-70
2022/09/18 10:40:00;;;;;;;2.33;1.60;;;;;;;;;;4997018;28;20188;-70
2022/09/18 10:42:31;;;;;;;1.50;0.97;;;;;;;;;;4982729;28;20551;-68
2022/09/18 10:45:22;;;;;;;1.87;1.20;;;;;;;;;;4986430;28;20208;-68
2022/09/18 10:48:23;;;;;;;1.83;1.00;;;;;;;;;;4964893;28;20235;-69
2022/09/18 10:50:53;;;;;;;2.40;1.00;;;;;;;;;;4972204;28;20292;-70
2022/09/18 10:53:37;;;;;;;1.63;1.00;;;;;;;;;;4986224;28;20199;-73
2022/09/18 10:56:15;;;;;;;2.67;1.00;;;;;;;;;;4984656;28;20231;-71
2022/09/18 10:58:47;;;;;;;1.93;0.83;;;;;;;;;;5000246;28;20218;-67
2022/09/18 11:01:14;;;;;;;1.60;0.93;;;;;;;;;;4970560;28;21095;-69
2022/09/18 11:03:59;;;;;;;3.60;1.10;;;;;;;;;;4984023;28;20193;-68
2022/09/18 11:06:29;;;;;;;1.57;0.87;;;;;;;;;;4974351;28;20299;-69
2022/09/18 11:09:09;;;;;;;2.53;0.90;;;;;;;;;;4983059;28;20200;-69
2022/09/18 11:11:42;;;;;;;1.40;0.80;;;;;;;;;;4973947;23;21229;-66
2022/09/18 11:14:18;;;;;;;1.20;1.00;;;;;;;;;;4976163;28;20270;-67
2022/09/18 11:17:00;;;;;;;1.00;0.80;;;;;;;;;;4973386;28;20208;-65
2022/09/18 11:19:35;;;;;;;3.53;1.00;;;;;;;;;;4974625;28;20734;-66
2022/09/18 11:22:26;;;;;;;1.70;0.80;;;;;;;;;;4979450;28;20843;-65
2022/09/18 11:25:05;;;;;;;1.67;0.93;;;;;;;;;;4983181;28;20204;-66
2022/09/18 11:27:42;;;;;;;1.47;0.80;;;;;;;;;;4983814;28;20235;-67
2022/09/18 11:30:24;;;;;;;1.20;0.60;;;;;;;;;;4982152;28;20197;-66
2022/09/18 11:32:53;;;;;;;0.90;0.60;;;;;;;;;;4981073;28;20200;-67
2022/09/18 11:35:21;;;;;;;2.03;0.70;;;;;;;;;;4984279;28;20201;-67
2022/09/18 11:37:51;;;;;;;2.20;0.90;;;;;;;;;;4981715;28;20302;-68
2022/09/18 11:40:27;;;;;;;2.87;0.97;;;;;;;;;;4997669;28;20208;-67
2022/09/18 11:42:58;;;;;;;0.93;0.70;;;;;;;;;;4981713;28;20836;-69
2022/09/18 11:45:39;;;;;;;1.10;0.43;;;;;;;;;;4984336;28;20189;-67
2022/09/18 11:48:12;;;;;;;1.97;0.50;;;;;;;;;;4981859;28;20244;-67
2022/09/18 11:50:40;;;;;;;1.80;0.60;;;;;;;;;;4985558;28;20192;-67
2022/09/18 11:53:16;;;;;;;1.47;0.50;;;;;;;;;;4984938;28;20229;-66
2022/09/18 11:55:43;;;;;;;1.47;0.70;;;;;;;;;;5002958;28;20201;-66
2022/09/18 11:58:12;;;;;;;1.20;0.70;;;;;;;;;;4984146;28;20193;-66
2022/09/18 12:00:41;;;;;;;1.53;0.60;;;;;;;;;;5005067;28;20208;-66
2022/09/18 12:03:25;;;;;;;0.53;0.40;;;;;;;;;;5000575;28;20534;-66
2022/09/18 12:05:57;;;;;;;0.83;0.30;;;;;;;;;;4952383;28;20193;-67
2022/09/18 12:08:50;;;;;;;0.20;0.20;;;;;;;;;;4978430;28;20608;-66
2022/09/18 12:11:26;;;;;;;1.40;0.40;;;;;;;;;;4978317;28;20286;-66
2022/09/18 12:14:01;;;;;;;0.90;0.40;;;;;;;;;;4986871;28;20197;-66
2022/09/18 12:16:44;;;;;;;0.67;0.53;;;;;;;;;;4962824;28;20188;-66
2022/09/18 12:19:21;;;;;;;1.33;0.40;;;;;;;;;;4988812;28;20211;-67
2022/09/18 12:21:57;;;;;;;0.77;0.30;;;;;;;;;;4990694;28;20291;-66
2022/09/18 12:24:24;;;;;;;0.63;0.30;;;;;;;;;;4988258;28;20201;-67
2022/09/18 12:27:03;;;;;;;0.80;0.30;;;;;;;;;;4982109;28;20220;-67
2022/09/18 12:29:40;;;;;;;1.23;0.30;;;;;;;;;;4998331;28;20224;-66
2022/09/18 12:32:20;;;;;;;0.90;0.40;;;;;;;;;;4983213;28;20272;-67
2022/09/18 12:35:06;;;;;;;0.33;0.33;;;;;;;;;;4999606;28;20192;-66
2022/09/18 12:37:35;;;;;;;0.67;0.40;;;;;;;;;;4981868;28;20194;-67
2022/09/18 12:40:38;;;;;;;1.93;0.40;;;;;;;;;;4980687;28;20889;-65
2022/09/18 12:43:14;;;;;;;0.93;0.40;;;;;;;;;;4943581;28;20208;-65
2022/09/18 12:45:50;;;;;;;1.43;0.63;;;;;;;;;;4977702;28;20211;-66
2022/09/18 12:48:17;;;;;;;0.80;0.53;;;;;;;;;;4983045;28;20217;-66
2022/09/18 12:50:46;;;;;;;2.30;0.47;;;;;;;;;;4984772;28;20759;-66
2022/09/18 12:53:17;;;;;;;1.17;0.50;;;;;;;;;;4982407;28;20189;-65
2022/09/18 12:56:03;;;;;;;1.80;0.73;;;;;;;;;;4999286;28;20765;-66
2022/09/18 12:58:33;;;;;;;0.90;0.53;;;;;;;;;;4979907;28;20718;-66
2022/09/18 13:01:02;;;;;;;2.63;0.40;;;;;;;;;;4981388;28;20203;-66
2022/09/18 13:03:33;;;;;;;2.27;0.50;;;;;;;;;;4994728;28;20197;-67
2022/09/18 13:06:29;;;;;;;1.37;0.50;;;;;;;;;;4978750;28;20573;-68
2022/09/18 13:08:57;;;;;;;1.43;0.70;;;;;;;;;;4981256;28;20719;-67
2022/09/18 13:11:29;;;;;;;0.73;0.33;;;;;;;;;;4982504;28;20231;-68
2022/09/18 13:14:00;;;;;;;0.63;0.33;;;;;;;;;;4998581;28;20204;-67
2022/09/18 13:16:46;;;;;;;3.77;1.57;;;;;;;;;;4994475;28;20254;-67
2022/09/18 13:19:23;;;;;;;3.33;2.20;;;;;;;;;;4982867;28;20200;-68
2022/09/18 13:21:51;;;;;;;1.90;1.20;;;;;;;;;;4982276;28;20216;-68
2022/09/18 13:24:25;;;;;;;2.90;1.10;;;;;;;;;;4982607;28;20201;-67
2022/09/18 13:26:53;;;;;;;4.77;2.20;;;;;;;;;;4997088;28;20208;-68
2022/09/18 13:29:39;;;;;;;2.53;1.20;;;;;;;;;;4998604;28;20247;-69
2022/09/18 13:32:06;;;;;;;4.47;1.00;;;;;;;;;;4982322;28;20282;-67
2022/09/18 13:34:35;;;;;;;2.53;1.10;;;;;;;;;;4983892;28;20682;-66
2022/09/18 13:37:03;;;;;;;1.53;0.80;;;;;;;;;;4982195;28;20243;-69
2022/09/18 13:39:31;;;;;;;2.20;0.97;;;;;;;;;;4997386;28;20189;-68
2022/09/18 13:42:28;;;;;;;2.03;1.20;;;;;;;;;;4993426;28;20209;-68
2022/09/18 13:44:57;;;;;;;3.30;1.40;;;;;;;;;;4998249;28;20679;-67
2022/09/18 13:47:24;;;;;;;2.37;1.20;;;;;;;;;;4996394;28;20898;-66
2022/09/18 13:49:51;;;;;;;3.87;1.30;;;;;;;;;;4978096;28;20263;-65
2022/09/18 13:52:28;;;;;;;3.03;1.40;;;;;;;;;;4982620;28;20296;-66
2022/09/18 13:55:02;;;;;;;4.33;1.40;;;;;;;;;;4977969;28;20695;-66
2022/09/18 13:57:30;;;;;;;2.47;1.70;;;;;;;;;;4982681;28;20206;-66
2022/09/18 13:59:59;;;;;;;4.93;1.83;;;;;;;;;;4984396;28;20190;-65
2022/09/18 14:02:26;;;;;;;2.20;1.40;;;;;;;;;;4984170;28;20197;-65
2022/09/18 14:04:56;;;;;;;2.40;1.30;;;;;;;;;;4980393;28;20181;-67
2022/09/18 14:07:23;;;;;;;3.33;1.73;;;;;;;;;;4973890;28;20243;-66
2022/09/18 14:09:59;;;;;;;2.97;1.90;;;;;;;;;;4980386;28;20547;-66
2022/09/18 14:12:33;;;;;;;2.83;1.80;;;;;;;;;;4975077;28;20227;-66
2022/09/18 14:15:04;;;;;;;3.77;1.60;;;;;;;;;;4969173;28;20206;-65
2022/09/18 14:17:31;;;;;;;2.13;1.60;;;;;;;;;;4995464;28;20292;-66
2022/09/18 14:20:04;;;;;;;3.53;1.90;;;;;;;;;;4999020;28;20243;-66
2022/09/18 14:22:33;;;;;;;3.73;1.70;;;;;;;;;;4983954;28;20762;-65
2022/09/18 14:25:02;;;;;;;3.23;1.53;;;;;;;;;;4980199;28;20279;-65
2022/09/18 14:27:34;;;;;;;2.70;1.50;;;;;;;;;;4982481;28;20219;-66
2022/09/18 14:30:02;;;;;;;2.17;1.23;;;;;;;;;;4984364;28;20201;-65
2022/09/18 14:32:29;;;;;;;2.73;1.10;;;;;;;;;;4979494;28;20189;-66
2022/09/18 14:35:14;;;;;;;3.43;1.30;;;;;;;;;;4974982;28;20661;-66
2022/09/18 14:37:41;;;;;;;3.27;1.33;;;;;;;;;;4991991;28;20192;-63
2022/09/18 14:40:17;;;;;;;3.00;1.27;;;;;;;;;;4948599;28;20248;-65
2022/09/18 14:42:45;;;;;;;1.97;1.33;;;;;;;;;;4979729;28;20197;-64
2022/09/18 14:45:13;;;;;;;2.13;1.17;;;;;;;;;;4983450;28;20208;-64
2022/09/18 14:47:44;;;;;;;2.90;1.20;;;;;;;;;;4979667;28;20209;-63
2022/09/18 14:50:31;;;;;;;1.90;1.20;;;;;;;;;;4976426;28;20189;-63
2022/09/18 14:52:59;;;;;;;2.57;1.60;;;;;;;;;;4997686;28;20276;-64
2022/09/18 14:55:30;;;;;;;2.40;1.43;;;;;;;;;;4986392;28;20191;-63
2022/09/18 14:57:59;;;;;;;4.07;2.10;;;;;;;;;;4981757;28;20197;-66
2022/09/18 15:00:28;;;;;;;2.87;1.90;;;;;;;;;;5005240;28;20184;-64
2022/09/18 15:02:58;;;;;;;5.07;3.13;;;;;;;;;;4984287;28;20651;-64
2022/09/18 15:05:25;;;;;;;2.97;1.43;;;;;;;;;;4987961;28;20207;-65
2022/09/18 15:07:53;;;;;;;2.93;1.40;;;;;;;;;;4991511;28;20302;-64
2022/09/18 15:10:21;;;;;;;2.27;0.90;;;;;;;;;;4982356;28;20196;-64
2022/09/18 15:12:48;;;;;;;4.07;1.50;;;;;;;;;;4983062;28;20232;-65
2022/09/18 15:15:25;;;;;;;3.93;2.40;;;;;;;;;;4984865;28;21840;-65
2022/09/18 15:17:53;;;;;;;6.90;2.13;;;;;;;;;;4985807;28;20204;-64
2022/09/18 15:20:20;;;;;;;4.57;2.57;;;;;;;;;;4984601;28;20193;-64